Annandale On Hudson, New York
Current Conditions -  °F | °C
As of 6:53 AM on Sunday 25 Jan 2015 (Local Time) from KPOU Reporting Station
Overcast Overcast  
Wind Chill: 28°   Ceiling: 5000
Heat Index: 35°   Visibility: 10mi
Dew Point: 26°   Wind: 9mph
Humidity: 70%   Direction: 230°SW
Pressure: 29.59"   Gusts: NA
Location:  42.01°N, 73.9°W
Report Text: KPOU 251153Z 23008KT 10SM OVC050 02/M03 A2959 RMK AO2 SLP019 70006 T00171033 10017 20006 53022
Loading
Personal Weather Stations






























Interactive Weather Map New forecast layout! Learn more

10-Day Weather Forecast

Advertisements
Track Severe Weather on mobile